sensor_id;sensor_type;location;lat;lon;timestamp;pressure;altitude;pressure_sealevel;temperature;humidity
19676;BME280;39539;52.202;9.876;2023-01-27T00:01:34;101504.75;;;1.14;100.00
19676;BME280;39539;52.202;9.876;2023-01-27T00:03:59;101524.44;;;1.29;100.00
19676;BME280;39539;52.202;9.876;2023-01-27T00:06:24;101515.28;;;1.24;100.00
19676;BME280;39539;52.202;9.876;2023-01-27T00:08:50;101515.88;;;1.27;100.00
19676;BME280;39539;52.202;9.876;2023-01-27T00:11:15;101516.06;;;1.35;100.00
19676;BME280;39539;52.202;9.876;2023-01-27T00:13:59;101509.91;;;1.37;100.00
19676;BME280;39539;52.202;9.876;2023-01-27T00:16:24;101504.91;;;1.33;100.00
19676;BME280;39539;52.202;9.876;2023-01-27T00:18:50;101508.47;;;1.32;100.00
19676;BME280;39539;52.202;9.876;2023-01-27T00:21:15;101504.06;;;1.33;100.00
19676;BME280;39539;52.202;9.876;2023-01-27T00:23:59;101506.94;;;1.30;100.00
19676;BME280;39539;52.202;9.876;2023-01-27T00:26:43;101510.59;;;1.39;100.00
19676;BME280;39539;52.202;9.876;2023-01-27T00:29:08;101502.41;;;1.32;100.00
19676;BME280;39539;52.202;9.876;2023-01-27T00:31:34;101507.06;;;1.28;100.00
19676;BME280;39539;52.202;9.876;2023-01-27T00:34:18;101508.47;;;1.32;100.00
19676;BME280;39539;52.202;9.876;2023-01-27T00:36:43;101502.03;;;1.37;100.00
19676;BME280;39539;52.202;9.876;2023-01-27T00:39:10;101494.75;;;1.40;100.00
19676;BME280;39539;52.202;9.876;2023-01-27T00:41:36;101500.09;;;1.39;100.00
19676;BME280;39539;52.202;9.876;2023-01-27T00:44:02;101496.41;;;1.41;100.00
19676;BME280;39539;52.202;9.876;2023-01-27T00:46:30;101499.28;;;1.38;100.00
19676;BME280;39539;52.202;9.876;2023-01-27T00:48:56;101507.59;;;1.43;100.00
19676;BME280;39539;52.202;9.876;2023-01-27T00:51:21;101504.41;;;1.40;100.00
19676;BME280;39539;52.202;9.876;2023-01-27T00:53:47;101492.75;;;1.32;100.00
19676;BME280;39539;52.202;9.876;2023-01-27T00:56:13;101503.94;;;1.34;100.00
19676;BME280;39539;52.202;9.876;2023-01-27T00:58:39;101512.97;;;1.42;100.00
19676;BME280;39539;52.202;9.876;2023-01-27T01:01:06;101514.88;;;1.40;100.00
19676;BME280;39539;52.202;9.876;2023-01-27T01:03:33;101516.44;;;1.42;100.00
19676;BME280;39539;52.202;9.876;2023-01-27T01:06:06;101517.72;;;1.48;100.00
19676;BME280;39539;52.202;9.876;2023-01-27T01:08:33;101527.69;;;1.54;100.00
19676;BME280;39539;52.202;9.876;2023-01-27T01:10:59;101524.09;;;1.55;100.00
19676;BME280;39539;52.202;9.876;2023-01-27T01:13:26;101523.97;;;1.56;100.00
19676;BME280;39539;52.202;9.876;2023-01-27T01:15:54;101532.66;;;1.57;100.00
19676;BME280;39539;52.202;9.876;2023-01-27T01:18:20;101535.41;;;1.55;100.00
19676;BME280;39539;52.202;9.876;2023-01-27T01:20:46;101540.53;;;1.57;100.00
19676;BME280;39539;52.202;9.876;2023-01-27T01:23:13;101545.31;;;1.52;100.00
19676;BME280;39539;52.202;9.876;2023-01-27T01:25:39;101543.84;;;1.59;100.00
19676;BME280;39539;52.202;9.876;2023-01-27T01:28:06;101539.56;;;1.58;100.00
19676;BME280;39539;52.202;9.876;2023-01-27T01:30:33;101539.03;;;1.64;100.00
19676;BME280;39539;52.202;9.876;2023-01-27T01:32:59;101533.38;;;1.59;100.00
19676;BME280;39539;52.202;9.876;2023-01-27T01:35:24;101537.66;;;1.60;100.00
19676;BME280;39539;52.202;9.876;2023-01-27T01:37:51;101546.06;;;1.64;100.00
19676;BME280;39539;52.202;9.876;2023-01-27T01:40:17;101545.41;;;1.62;100.00
19676;BME280;39539;52.202;9.876;2023-01-27T01:50:55;101537.38;;;1.63;100.00
19676;BME280;39539;52.202;9.876;2023-01-27T01:53:24;101540.00;;;1.63;100.00
19676;BME280;39539;52.202;9.876;2023-01-27T01:55:56;101537.66;;;1.60;100.00
19676;BME280;39539;52.202;9.876;2023-01-27T01:58:23;101539.56;;;1.58;100.00
19676;BME280;39539;52.202;9.876;2023-01-27T02:00:52;101546.34;;;1.61;100.00
19676;BME280;39539;52.202;9.876;2023-01-27T02:03:17;101549.91;;;1.60;100.00
19676;BME280;39539;52.202;9.876;2023-01-27T02:05:43;101548.94;;;1.61;100.00
19676;BME280;39539;52.202;9.876;2023-01-27T02:08:16;101550.50;;;1.63;100.00
19676;BME280;39539;52.202;9.876;2023-01-27T02:10:44;101551.31;;;1.64;100.00
19676;BME280;39539;52.202;9.876;2023-01-27T02:13:10;101552.75;;;1.68;100.00
19676;BME280;39539;52.202;9.876;2023-01-27T02:15:36;101554.53;;;1.67;100.00
19676;BME280;39539;52.202;9.876;2023-01-27T02:18:02;101562.41;;;1.67;100.00
19676;BME280;39539;52.202;9.876;2023-01-27T02:25:52;101553.13;;;1.63;100.00
19676;BME280;39539;52.202;9.876;2023-01-27T02:28:19;101558.09;;;1.66;100.00
19676;BME280;39539;52.202;9.876;2023-01-27T02:30:44;101554.53;;;1.67;100.00
19676;BME280;39539;52.202;9.876;2023-01-27T02:33:13;101552.59;;;1.69;100.00
19676;BME280;39539;52.202;9.876;2023-01-27T02:38:20;101549.31;;;1.67;100.00
19676;BME280;39539;52.202;9.876;2023-01-27T02:40:48;101552.34;;;1.72;100.00
19676;BME280;39539;52.202;9.876;2023-01-27T02:43:15;101554.72;;;1.75;100.00
19676;BME280;39539;52.202;9.876;2023-01-27T02:45:40;101547.09;;;1.72;100.00
19676;BME280;39539;52.202;9.876;2023-01-27T02:48:06;101555.31;;;1.79;100.00
19676;BME280;39539;52.202;9.876;2023-01-27T02:50:31;101551.50;;;1.72;100.00
19676;BME280;39539;52.202;9.876;2023-01-27T02:52:57;101558.88;;;1.78;100.00
19676;BME280;39539;52.202;9.876;2023-01-27T02:55:22;101537.13;;;1.66;100.00
19676;BME280;39539;52.202;9.876;2023-01-27T02:57:47;101555.69;;;1.74;100.00
19676;BME280;39539;52.202;9.876;2023-01-27T03:00:13;101565.06;;;1.77;100.00
19676;BME280;39539;52.202;9.876;2023-01-27T03:02:38;101569.69;;;1.85;100.00
19676;BME280;39539;52.202;9.876;2023-01-27T03:05:04;101568.72;;;1.86;100.00
19676;BME280;39539;52.202;9.876;2023-01-27T03:07:29;101565.66;;;1.80;100.00
19676;BME280;39539;52.202;9.876;2023-01-27T03:09:55;101575.63;;;1.87;100.00
19676;BME280;39539;52.202;9.876;2023-01-27T03:12:20;101576.72;;;1.84;100.00
19676;BME280;39539;52.202;9.876;2023-01-27T03:14:47;101577.28;;;1.88;100.00
19676;BME280;39539;52.202;9.876;2023-01-27T03:17:31;101572.06;;;1.88;100.00
19676;BME280;39539;52.202;9.876;2023-01-27T03:20:15;101578.59;;;1.93;100.00
19676;BME280;39539;52.202;9.876;2023-01-27T03:22:41;101575.38;;;1.90;100.00
19676;BME280;39539;52.202;9.876;2023-01-27T03:25:06;101572.78;;;1.90;100.00
19676;BME280;39539;52.202;9.876;2023-01-27T03:27:33;101581.31;;;1.92;100.00
19676;BME280;39539;52.202;9.876;2023-01-27T03:29:58;101583.94;;;1.92;100.00
19676;BME280;39539;52.202;9.876;2023-01-27T03:32:26;101580.13;;;1.96;100.00
19676;BME280;39539;52.202;9.876;2023-01-27T03:34:51;101580.22;;;1.94;100.00
19676;BME280;39539;52.202;9.876;2023-01-27T03:37:17;101577.75;;;1.93;100.00
19676;BME280;39539;52.202;9.876;2023-01-27T03:40:02;101579.84;;;1.99;100.00
19676;BME280;39539;52.202;9.876;2023-01-27T03:42:47;101585.94;;;1.99;100.00
19676;BME280;39539;52.202;9.876;2023-01-27T03:45:31;101583.19;;;2.01;100.00
19676;BME280;39539;52.202;9.876;2023-01-27T03:48:15;101572.06;;;1.88;100.00
19676;BME280;39539;52.202;9.876;2023-01-27T03:50:42;101583.69;;;1.95;100.00
19676;BME280;39539;52.202;9.876;2023-01-27T03:53:09;101583.56;;;1.96;100.00
19676;BME280;39539;52.202;9.876;2023-01-27T03:55:36;101577.28;;;1.88;100.00
19676;BME280;39539;52.202;9.876;2023-01-27T03:58:02;101585.38;;;1.96;100.00
19676;BME280;39539;52.202;9.876;2023-01-27T04:00:43;101584.38;;;1.97;100.00
19676;BME280;39539;52.202;9.876;2023-01-27T04:03:09;101588.66;;;1.98;100.00
19676;BME280;39539;52.202;9.876;2023-01-27T04:05:53;101584.38;;;1.97;100.00
19676;BME280;39539;52.202;9.876;2023-01-27T04:08:37;101586.03;;;1.98;100.00
19676;BME280;39539;52.202;9.876;2023-01-27T04:11:03;101586.91;;;1.98;100.00
19676;BME280;39539;52.202;9.876;2023-01-27T04:13:47;101585.09;;;1.99;100.00
19676;BME280;39539;52.202;9.876;2023-01-27T04:16:13;101577.34;;;1.97;100.00
19676;BME280;39539;52.202;9.876;2023-01-27T04:18:38;101578.69;;;1.92;100.00
19676;BME280;39539;52.202;9.876;2023-01-27T04:21:03;101584.38;;;1.97;100.00
19676;BME280;39539;52.202;9.876;2023-01-27T04:23:29;101587.84;;;1.97;100.00
19676;BME280;39539;52.202;9.876;2023-01-27T04:25:56;101581.25;;;2.03;100.00
19676;BME280;39539;52.202;9.876;2023-01-27T04:28:21;101580.31;;;2.04;100.00
19676;BME280;39539;52.202;9.876;2023-01-27T04:30:47;101587.91;;;2.07;100.00
19676;BME280;39539;52.202;9.876;2023-01-27T04:33:13;101593.16;;;2.07;100.00
19676;BME280;39539;52.202;9.876;2023-01-27T04:35:43;101600.38;;;2.15;100.00
19676;BME280;39539;52.202;9.876;2023-01-27T04:38:10;101593.84;;;2.09;100.00
19676;BME280;39539;52.202;9.876;2023-01-27T04:40:35;101606.94;;;2.09;100.00
19676;BME280;39539;52.202;9.876;2023-01-27T04:43:00;101603.31;;;2.21;100.00
19676;BME280;39539;52.202;9.876;2023-01-27T04:45:26;101607.47;;;2.24;100.00
19676;BME280;39539;52.202;9.876;2023-01-27T04:47:51;101611.88;;;2.23;100.00
19676;BME280;39539;52.202;9.876;2023-01-27T04:50:16;101601.53;;;2.22;100.00
19676;BME280;39539;52.202;9.876;2023-01-27T04:52:42;101623.06;;;2.25;100.00
19676;BME280;39539;52.202;9.876;2023-01-27T04:55:09;101617.06;;;2.14;100.00
19676;BME280;39539;52.202;9.876;2023-01-27T04:57:35;101631.19;;;2.22;100.00
19676;BME280;39539;52.202;9.876;2023-01-27T05:00:02;101628.56;;;2.22;100.00
19676;BME280;39539;52.202;9.876;2023-01-27T05:02:28;101633.56;;;2.25;100.00
19676;BME280;39539;52.202;9.876;2023-01-27T05:04:53;101630.50;;;2.20;100.00
19676;BME280;39539;52.202;9.876;2023-01-27T05:07:19;101632.03;;;2.23;100.00
19676;BME280;39539;52.202;9.876;2023-01-27T05:09:44;101630.28;;;2.12;100.00
19676;BME280;39539;52.202;9.876;2023-01-27T05:12:09;101625.50;;;2.17;100.00
19676;BME280;39539;52.202;9.876;2023-01-27T05:14:34;101627.44;;;2.15;100.00
19676;BME280;39539;52.202;9.876;2023-01-27T05:17:00;101633.13;;;2.20;100.00
19676;BME280;39539;52.202;9.876;2023-01-27T05:19:25;101645.66;;;2.17;100.00
19676;BME280;39539;52.202;9.876;2023-01-27T05:21:51;101638.88;;;2.14;100.00
19676;BME280;39539;52.202;9.876;2023-01-27T05:24:16;101645.09;;;2.13;100.00
19676;BME280;39539;52.202;9.876;2023-01-27T05:26:41;101642.91;;;2.18;100.00
19676;BME280;39539;52.202;9.876;2023-01-27T05:29:08;101643.75;;;2.19;100.00
19676;BME280;39539;52.202;9.876;2023-01-27T05:31:33;101642.78;;;2.20;100.00
19676;BME280;39539;52.202;9.876;2023-01-27T05:34:00;101656.41;;;2.35;100.00
19676;BME280;39539;52.202;9.876;2023-01-27T05:36:26;101655.19;;;2.39;100.00
19676;BME280;39539;52.202;9.876;2023-01-27T05:38:53;101653.97;;;2.43;100.00
19676;BME280;39539;52.202;9.876;2023-01-27T05:41:19;101657.38;;;2.34;100.00
19676;BME280;39539;52.202;9.876;2023-01-27T05:43:46;101674.00;;;2.44;100.00
19676;BME280;39539;52.202;9.876;2023-01-27T05:46:14;101661.16;;;2.41;100.00
19676;BME280;39539;52.202;9.876;2023-01-27T05:49:01;101663.38;;;2.45;100.00
19676;BME280;39539;52.202;9.876;2023-01-27T05:51:30;101659.22;;;2.43;100.00
19676;BME280;39539;52.202;9.876;2023-01-27T05:53:55;101661.53;;;2.36;100.00
19676;BME280;39539;52.202;9.876;2023-01-27T05:56:21;101670.16;;;2.48;100.00
19676;BME280;39539;52.202;9.876;2023-01-27T05:58:47;101673.75;;;2.47;100.00
19676;BME280;39539;52.202;9.876;2023-01-27T06:01:21;101669.44;;;2.46;100.00
19676;BME280;39539;52.202;9.876;2023-01-27T06:03:47;101662.09;;;2.40;100.00
19676;BME280;39539;52.202;9.876;2023-01-27T06:06:15;101678.66;;;2.40;100.00
19676;BME280;39539;52.202;9.876;2023-01-27T06:08:41;101678.28;;;2.45;100.00
19676;BME280;39539;52.202;9.876;2023-01-27T06:11:07;101684.00;;;2.50;100.00
19676;BME280;39539;52.202;9.876;2023-01-27T06:13:33;101687.31;;;2.52;100.00
19676;BME280;39539;52.202;9.876;2023-01-27T06:16:04;101692.81;;;2.49;100.00
19676;BME280;39539;52.202;9.876;2023-01-27T06:18:30;101692.22;;;2.45;100.00
19676;BME280;39539;52.202;9.876;2023-01-27T06:20:57;101697.03;;;2.61;100.00
19676;BME280;39539;52.202;9.876;2023-01-27T06:23:23;101694.28;;;2.63;100.00
19676;BME280;39539;52.202;9.876;2023-01-27T06:25:48;101692.63;;;2.62;100.00
19676;BME280;39539;52.202;9.876;2023-01-27T06:28:15;101698.94;;;2.59;100.00
19676;BME280;39539;52.202;9.876;2023-01-27T06:30:41;101695.34;;;2.60;100.00
19676;BME280;39539;52.202;9.876;2023-01-27T06:33:07;101693.41;;;2.53;100.00
19676;BME280;39539;52.202;9.876;2023-01-27T06:35:34;101692.16;;;2.57;100.00
19676;BME280;39539;52.202;9.876;2023-01-27T06:38:01;101700.03;;;2.57;100.00
19676;BME280;39539;52.202;9.876;2023-01-27T06:40:28;101700.59;;;2.60;100.00
19676;BME280;39539;52.202;9.876;2023-01-27T06:42:54;101704.75;;;2.63;100.00
19676;BME280;39539;52.202;9.876;2023-01-27T06:45:20;101699.94;;;2.58;100.00
19676;BME280;39539;52.202;9.876;2023-01-27T06:47:53;101690.78;;;2.53;100.00
19676;BME280;39539;52.202;9.876;2023-01-27T06:50:19;101689.44;;;2.58;100.00
19676;BME280;39539;52.202;9.876;2023-01-27T06:52:44;101689.16;;;2.61;100.00
19676;BME280;39539;52.202;9.876;2023-01-27T06:55:10;101692.81;;;2.49;100.00
19676;BME280;39539;52.202;9.876;2023-01-27T06:57:35;101705.69;;;2.52;100.00
19676;BME280;39539;52.202;9.876;2023-01-27T07:00:01;101714.13;;;2.56;100.00
19676;BME280;39539;52.202;9.876;2023-01-27T07:02:26;101706.13;;;2.57;100.00
19676;BME280;39539;52.202;9.876;2023-01-27T07:04:52;101712.78;;;2.61;100.00
19676;BME280;39539;52.202;9.876;2023-01-27T07:07:17;101695.31;;;2.51;100.00
19676;BME280;39539;52.202;9.876;2023-01-27T07:09:44;101703.06;;;2.52;100.00
19676;BME280;39539;52.202;9.876;2023-01-27T07:12:09;101722.31;;;2.62;100.00
19676;BME280;39539;52.202;9.876;2023-01-27T07:14:36;101731.28;;;2.60;100.00
19676;BME280;39539;52.202;9.876;2023-01-27T07:17:01;101707.16;;;2.45;100.00
19676;BME280;39539;52.202;9.876;2023-01-27T07:19:26;101721.03;;;2.57;100.00
19676;BME280;39539;52.202;9.876;2023-01-27T07:21:52;101699.16;;;2.46;100.00
19676;BME280;39539;52.202;9.876;2023-01-27T07:24:17;101727.81;;;2.59;100.00
19676;BME280;39539;52.202;9.876;2023-01-27T07:26:43;101725.91;;;2.61;100.00
19676;BME280;39539;52.202;9.876;2023-01-27T07:29:12;101723.03;;;2.64;100.00
19676;BME280;39539;52.202;9.876;2023-01-27T07:31:38;101733.53;;;2.64;100.00
19676;BME280;39539;52.202;9.876;2023-01-27T07:34:03;101737.13;;;2.63;100.00
19676;BME280;39539;52.202;9.876;2023-01-27T07:36:29;101744.31;;;2.71;100.00
19676;BME280;39539;52.202;9.876;2023-01-27T07:38:54;101739.06;;;2.71;100.00
19676;BME280;39539;52.202;9.876;2023-01-27T07:41:20;101750.41;;;2.72;100.00
19676;BME280;39539;52.202;9.876;2023-01-27T07:43:47;101746.13;;;2.70;100.00
19676;BME280;39539;52.202;9.876;2023-01-27T07:46:13;101745.94;;;2.62;100.00
19676;BME280;39539;52.202;9.876;2023-01-27T07:48:38;101759.78;;;2.64;100.00
19676;BME280;39539;52.202;9.876;2023-01-27T07:51:04;101748.34;;;2.54;100.00
19676;BME280;39539;52.202;9.876;2023-01-27T07:53:29;101755.03;;;2.58;100.00
19676;BME280;39539;52.202;9.876;2023-01-27T07:55:54;101745.78;;;2.43;100.00
19676;BME280;39539;52.202;9.876;2023-01-27T07:58:20;101756.56;;;2.61;100.00
19676;BME280;39539;52.202;9.876;2023-01-27T08:00:45;101763.59;;;2.60;100.00
19676;BME280;39539;52.202;9.876;2023-01-27T08:03:29;101766.22;;;2.60;100.00
19676;BME280;39539;52.202;9.876;2023-01-27T08:05:55;101774.34;;;2.57;100.00
19676;BME280;39539;52.202;9.876;2023-01-27T08:08:21;101765.78;;;2.55;100.00
19676;BME280;39539;52.202;9.876;2023-01-27T08:10:46;101784.84;;;2.57;100.00
19676;BME280;39539;52.202;9.876;2023-01-27T08:13:14;101777.03;;;2.46;100.00
19676;BME280;39539;52.202;9.876;2023-01-27T08:15:40;101782.28;;;2.46;100.00
19676;BME280;39539;52.202;9.876;2023-01-27T08:18:05;101792.50;;;2.49;100.00
19676;BME280;39539;52.202;9.876;2023-01-27T08:20:31;101795.13;;;2.49;100.00
19676;BME280;39539;52.202;9.876;2023-01-27T08:22:57;101784.63;;;2.49;100.00
19676;BME280;39539;52.202;9.876;2023-01-27T08:25:23;101804.19;;;2.56;100.00
19676;BME280;39539;52.202;9.876;2023-01-27T08:27:50;101799.50;;;2.60;100.00
19676;BME280;39539;52.202;9.876;2023-01-27T08:30:16;101789.84;;;2.60;100.00
19676;BME280;39539;52.202;9.876;2023-01-27T08:32:44;101797.72;;;2.60;100.00
19676;BME280;39539;52.202;9.876;2023-01-27T08:35:09;101803.16;;;2.68;100.00
19676;BME280;39539;52.202;9.876;2023-01-27T08:37:35;101800.94;;;2.64;100.00
19676;BME280;39539;52.202;9.876;2023-01-27T08:40:00;101810.09;;;2.69;100.00
19676;BME280;39539;52.202;9.876;2023-01-27T08:42:26;101813.75;;;2.78;100.00
19676;BME280;39539;52.202;9.876;2023-01-27T08:44:51;101794.84;;;2.63;100.00
19676;BME280;39539;52.202;9.876;2023-01-27T08:47:17;101812.91;;;2.78;100.00
19676;BME280;39539;52.202;9.876;2023-01-27T08:49:43;101811.22;;;2.77;100.00
19676;BME280;39539;52.202;9.876;2023-01-27T08:52:08;101819.81;;;2.79;100.00
19676;BME280;39539;52.202;9.876;2023-01-27T08:54:33;101811.84;;;2.80;100.00
19676;BME280;39539;52.202;9.876;2023-01-27T08:57:00;101824.31;;;2.88;100.00
19676;BME280;39539;52.202;9.876;2023-01-27T08:59:26;101812.91;;;2.78;100.00
19676;BME280;39539;52.202;9.876;2023-01-27T09:01:51;101827.75;;;2.88;100.00
19676;BME280;39539;52.202;9.876;2023-01-27T09:04:17;101824.88;;;2.91;100.00
19676;BME280;39539;52.202;9.876;2023-01-27T09:06:44;101832.31;;;2.86;100.00
19676;BME280;39539;52.202;9.876;2023-01-27T09:09:13;101829.81;;;2.85;100.00
19676;BME280;39539;52.202;9.876;2023-01-27T09:11:41;101828.41;;;2.81;100.00
19676;BME280;39539;52.202;9.876;2023-01-27T09:14:06;101834.81;;;2.88;100.00
19676;BME280;39539;52.202;9.876;2023-01-27T09:16:32;101830.28;;;2.69;100.00
19676;BME280;39539;52.202;9.876;2023-01-27T09:18:58;101842.75;;;2.77;100.00
19676;BME280;39539;52.202;9.876;2023-01-27T09:21:24;101833.91;;;2.78;100.00
19676;BME280;39539;52.202;9.876;2023-01-27T09:23:50;101842.75;;;2.77;100.00
19676;BME280;39539;52.202;9.876;2023-01-27T09:26:15;101849.94;;;2.75;100.00
19676;BME280;39539;52.202;9.876;2023-01-27T09:28:41;101846.13;;;2.67;100.00
19676;BME280;39539;52.202;9.876;2023-01-27T09:31:06;101860.44;;;2.75;100.00
19676;BME280;39539;52.202;9.876;2023-01-27T09:33:34;101855.34;;;2.83;100.00
19676;BME280;39539;52.202;9.876;2023-01-27T09:36:05;101853.38;;;2.75;100.00
19676;BME280;39539;52.202;9.876;2023-01-27T09:38:36;101858.94;;;2.82;100.00
19676;BME280;39539;52.202;9.876;2023-01-27T09:41:22;101858.31;;;2.89;100.00
19676;BME280;39539;52.202;9.876;2023-01-27T09:52:30;101862.84;;;3.08;100.00
19676;BME280;39539;52.202;9.876;2023-01-27T10:00:35;101858.78;;;2.95;100.00
19676;BME280;39539;52.202;9.876;2023-01-27T10:03:17;101855.28;;;2.94;100.00
19676;BME280;39539;52.202;9.876;2023-01-27T10:14:46;101844.53;;;2.97;100.00
19676;BME280;39539;52.202;9.876;2023-01-27T10:25:57;101855.28;;;2.94;100.00
19676;BME280;39539;52.202;9.876;2023-01-27T10:28:28;101846.13;;;2.88;100.00
19676;BME280;39539;52.202;9.876;2023-01-27T10:31:00;101868.81;;;2.89;100.00
19676;BME280;39539;52.202;9.876;2023-01-27T10:33:51;101848.84;;;2.98;100.00
19676;BME280;39539;52.202;9.876;2023-01-27T10:36:26;101850.97;;;3.04;100.00
19676;BME280;39539;52.202;9.876;2023-01-27T10:39:06;101841.50;;;2.92;100.00
19676;BME280;39539;52.202;9.876;2023-01-27T10:47:18;101839.06;;;3.00;100.00
19676;BME280;39539;52.202;9.876;2023-01-27T10:49:50;101848.78;;;3.09;100.00
19676;BME280;39539;52.202;9.876;2023-01-27T10:52:30;101838.28;;;3.09;100.00
19676;BME280;39539;52.202;9.876;2023-01-27T10:55:19;101846.47;;;3.16;100.00
19676;BME280;39539;52.202;9.876;2023-01-27T10:58:30;101840.91;;;3.09;100.00
19676;BME280;39539;52.202;9.876;2023-01-27T11:01:01;101843.84;;;3.16;100.00
19676;BME280;39539;52.202;9.876;2023-01-27T11:03:42;101822.00;;;3.15;100.00
19676;BME280;39539;52.202;9.876;2023-01-27T11:06:15;101834.34;;;3.25;100.00
19676;BME280;39539;52.202;9.876;2023-01-27T11:08:45;101846.09;;;3.21;100.00
19676;BME280;39539;52.202;9.876;2023-01-27T11:11:23;101830.31;;;3.21;100.00
19676;BME280;39539;52.202;9.876;2023-01-27T11:14:26;101838.72;;;3.14;100.00
19676;BME280;39539;52.202;9.876;2023-01-27T11:17:13;101846.34;;;3.18;100.00
19676;BME280;39539;52.202;9.876;2023-01-27T11:31:52;101835.84;;;3.18;100.00
19676;BME280;39539;52.202;9.876;2023-01-27T11:40:05;101834.94;;;3.07;100.00
19676;BME280;39539;52.202;9.876;2023-01-27T11:42:40;101838.53;;;3.06;100.00
19676;BME280;39539;52.202;9.876;2023-01-27T11:45:10;101844.72;;;3.05;100.00
19676;BME280;39539;52.202;9.876;2023-01-27T11:47:38;101839.16;;;3.20;100.00
19676;BME280;39539;52.202;9.876;2023-01-27T11:50:05;101833.53;;;3.03;100.00
19676;BME280;39539;52.202;9.876;2023-01-27T11:52:32;101836.66;;;2.97;100.00
19676;BME280;39539;52.202;9.876;2023-01-27T11:57:40;101825.13;;;2.88;100.00
19676;BME280;39539;52.202;9.876;2023-01-27T12:00:30;101844.31;;;3.00;100.00
19676;BME280;39539;52.202;9.876;2023-01-27T12:05:35;101832.91;;;2.90;100.00
19676;BME280;39539;52.202;9.876;2023-01-27T12:08:03;101842.47;;;2.80;100.00
19676;BME280;39539;52.202;9.876;2023-01-27T12:10:35;101835.22;;;2.83;100.00
19676;BME280;39539;52.202;9.876;2023-01-27T12:13:17;101823.28;;;2.79;100.00
19676;BME280;39539;52.202;9.876;2023-01-27T12:15:55;101827.91;;;2.87;100.00
19676;BME280;39539;52.202;9.876;2023-01-27T12:18:24;101827.38;;;2.93;100.00
19676;BME280;39539;52.202;9.876;2023-01-27T12:20:58;101822.50;;;2.88;100.00
19676;BME280;39539;52.202;9.876;2023-01-27T12:23:30;101817.44;;;2.97;100.00
19676;BME280;39539;52.202;9.876;2023-01-27T12:26:05;101814.00;;;2.96;100.00
19676;BME280;39539;52.202;9.876;2023-01-27T12:28:34;101815.78;;;2.96;100.00
19676;BME280;39539;52.202;9.876;2023-01-27T12:33:37;101813.69;;;2.89;100.00
19676;BME280;39539;52.202;9.876;2023-01-27T12:36:11;101814.88;;;2.85;100.00
19676;BME280;39539;52.202;9.876;2023-01-27T12:38:49;101827.75;;;2.88;100.00
19676;BME280;39539;52.202;9.876;2023-01-27T12:41:22;101813.81;;;2.88;100.00
19676;BME280;39539;52.202;9.876;2023-01-27T12:43:58;101809.38;;;2.88;100.00
19676;BME280;39539;52.202;9.876;2023-01-27T12:46:27;101815.97;;;2.83;100.00
19676;BME280;39539;52.202;9.876;2023-01-27T12:49:00;101815.22;;;2.92;100.00
19676;BME280;39539;52.202;9.876;2023-01-27T12:51:39;101811.50;;;2.95;100.00
19676;BME280;39539;52.202;9.876;2023-01-27T12:54:20;101810.53;;;2.96;100.00
19676;BME280;39539;52.202;9.876;2023-01-27T12:56:49;101798.38;;;2.95;100.00
19676;BME280;39539;52.202;9.876;2023-01-27T12:59:17;101815.03;;;2.84;100.00
19676;BME280;39539;52.202;9.876;2023-01-27T13:01:56;101806.50;;;2.91;100.00
19676;BME280;39539;52.202;9.876;2023-01-27T13:04:22;101805.41;;;2.73;100.00
19676;BME280;39539;52.202;9.876;2023-01-27T13:07:03;101808.09;;;2.83;100.00
19676;BME280;39539;52.202;9.876;2023-01-27T13:12:14;101794.03;;;2.84;100.00
19676;BME280;39539;52.202;9.876;2023-01-27T13:14:41;101798.56;;;2.82;100.00
19676;BME280;39539;52.202;9.876;2023-01-27T13:17:38;101788.50;;;2.87;100.00
19676;BME280;39539;52.202;9.876;2023-01-27T13:22:48;101794.72;;;2.86;100.00
19676;BME280;39539;52.202;9.876;2023-01-27T13:25:19;101806.50;;;2.91;100.00
19676;BME280;39539;52.202;9.876;2023-01-27T13:27:47;101793.50;;;2.90;100.00
19676;BME280;39539;52.202;9.876;2023-01-27T13:30:33;101798.19;;;2.86;100.00
19676;BME280;39539;52.202;9.876;2023-01-27T13:35:56;101799.78;;;2.99;100.00
19676;BME280;39539;52.202;9.876;2023-01-27T13:38:33;101802.84;;;3.04;100.00
19676;BME280;39539;52.202;9.876;2023-01-27T13:41:10;101804.28;;;2.87;100.00
19676;BME280;39539;52.202;9.876;2023-01-27T13:43:39;101802.16;;;2.81;100.00
19676;BME280;39539;52.202;9.876;2023-01-27T13:46:18;101805.94;;;2.88;100.00
19676;BME280;39539;52.202;9.876;2023-01-27T13:48:50;101798.81;;;2.79;100.00
19676;BME280;39539;52.202;9.876;2023-01-27T13:51:19;101807.41;;;2.81;100.00
19676;BME280;39539;52.202;9.876;2023-01-27T13:53:47;101803.81;;;2.82;100.00
19676;BME280;39539;52.202;9.876;2023-01-27T13:59:39;101819.56;;;2.82;100.00
19676;BME280;39539;52.202;9.876;2023-01-27T14:07:52;101814.00;;;2.75;100.00
19676;BME280;39539;52.202;9.876;2023-01-27T14:10:37;101817.16;;;2.69;100.00
19676;BME280;39539;52.202;9.876;2023-01-27T14:13:42;101818.44;;;2.75;100.00
19676;BME280;39539;52.202;9.876;2023-01-27T14:18:45;101827.88;;;2.66;100.00
19676;BME280;39539;52.202;9.876;2023-01-27T14:24:01;101818.69;;;2.60;100.00
19676;BME280;39539;52.202;9.876;2023-01-27T14:29:24;101834.53;;;2.70;100.00
19676;BME280;39539;52.202;9.876;2023-01-27T14:37:29;101838.25;;;2.67;100.00
19676;BME280;39539;52.202;9.876;2023-01-27T14:45:34;101838.88;;;2.60;100.00
19676;BME280;39539;52.202;9.876;2023-01-27T14:48:22;101842.72;;;2.56;100.00
19676;BME280;39539;52.202;9.876;2023-01-27T15:02:12;101856.97;;;2.42;100.00
19676;BME280;39539;52.202;9.876;2023-01-27T15:18:34;101849.22;;;2.29;100.00
19676;BME280;39539;52.202;9.876;2023-01-27T15:27:01;101866.72;;;2.40;100.00
19676;BME280;39539;52.202;9.876;2023-01-27T15:29:28;101860.31;;;2.44;100.00